createdAt,value
2018-12-19T00:00:56.671Z,16.30
2018-12-19T00:03:24.194Z,16.30
2018-12-19T00:05:51.688Z,16.30
2018-12-19T00:08:19.136Z,16.30
2018-12-19T00:10:46.664Z,16.30
2018-12-19T00:13:18.221Z,16.30
2018-12-19T00:15:45.778Z,16.30
2018-12-19T00:18:13.442Z,16.30
2018-12-19T00:20:40.918Z,16.30
2018-12-19T00:23:08.381Z,16.30
2018-12-19T00:25:35.838Z,16.30
2018-12-19T00:28:03.322Z,16.30
2018-12-19T00:30:30.887Z,16.30
2018-12-19T00:32:58.381Z,16.30
2018-12-19T00:35:25.889Z,16.30
2018-12-19T00:37:53.349Z,16.30
2018-12-19T00:40:20.818Z,16.30
2018-12-19T00:42:48.275Z,16.30
2018-12-19T00:48:30.663Z,16.30
2018-12-19T00:50:58.159Z,16.30
2018-12-19T00:53:25.636Z,16.20
2018-12-19T00:55:53.091Z,16.30
2018-12-19T00:58:20.561Z,16.30
2018-12-19T01:00:48.039Z,16.20
2018-12-19T01:03:15.545Z,16.20
2018-12-19T01:05:43.030Z,16.20
2018-12-19T01:08:10.486Z,16.30
2018-12-19T01:10:38.045Z,16.30
2018-12-19T01:13:05.618Z,16.30
2018-12-19T01:15:33.098Z,16.30
2018-12-19T01:18:00.593Z,16.20
2018-12-19T01:20:28.073Z,16.30
2018-12-19T01:22:55.584Z,16.30
2018-12-19T01:25:23.103Z,16.30
2018-12-19T01:27:50.563Z,16.30
2018-12-19T01:30:18.041Z,16.20
2018-12-19T01:32:45.493Z,16.20
2018-12-19T01:35:12.974Z,16.30
2018-12-19T01:37:40.445Z,16.20
2018-12-19T01:40:07.941Z,16.20
2018-12-19T01:42:35.412Z,16.20
2018-12-19T01:45:02.908Z,16.20
2018-12-19T01:47:30.381Z,16.20
2018-12-19T01:49:57.843Z,16.20
2018-12-19T01:52:25.299Z,16.20
2018-12-19T01:54:52.800Z,16.20
2018-12-19T01:57:20.266Z,16.20
2018-12-19T01:59:47.741Z,16.20
2018-12-19T02:02:15.181Z,16.20
2018-12-19T02:04:42.734Z,16.20
2018-12-19T02:07:10.191Z,16.20
2018-12-19T02:09:37.722Z,16.20
2018-12-19T02:12:05.198Z,16.20
2018-12-19T02:14:32.671Z,16.20
2018-12-19T02:17:00.152Z,16.20
2018-12-19T02:19:27.629Z,16.20
2018-12-19T02:21:55.105Z,16.20
2018-12-19T02:24:22.562Z,16.20
2018-12-19T02:26:50.162Z,16.20
2018-12-19T02:29:17.617Z,16.20
2018-12-19T02:31:45.128Z,16.20
2018-12-19T02:34:13.768Z,16.20
2018-12-19T02:36:41.270Z,16.20
2018-12-19T02:39:08.748Z,16.20
2018-12-19T02:41:36.225Z,16.20
2018-12-19T02:44:03.843Z,16.20
2018-12-19T02:46:31.322Z,16.20
2018-12-19T02:48:58.831Z,16.20
2018-12-19T02:51:26.323Z,16.20
2018-12-19T02:53:53.780Z,16.20
2018-12-19T02:56:21.251Z,16.20
2018-12-19T02:58:48.732Z,16.20
2018-12-19T03:01:16.194Z,16.20
2018-12-19T03:03:43.647Z,16.20
2018-12-19T03:06:11.107Z,16.20
2018-12-19T03:08:38.717Z,16.20
2018-12-19T03:11:06.186Z,16.20
2018-12-19T03:13:33.743Z,16.20
2018-12-19T03:16:01.213Z,16.20
2018-12-19T03:18:28.779Z,16.20
2018-12-19T03:20:56.255Z,16.20
2018-12-19T03:23:23.784Z,16.20
2018-12-19T03:25:51.241Z,16.20
2018-12-19T03:28:18.700Z,16.20
2018-12-19T03:30:46.169Z,16.20
2018-12-19T03:33:13.640Z,16.20
2018-12-19T03:35:41.106Z,16.20
2018-12-19T03:38:10.645Z,16.20
2018-12-19T03:40:38.168Z,16.20
2018-12-19T03:43:05.618Z,16.20
2018-12-19T03:45:33.087Z,16.10
2018-12-19T03:48:00.557Z,16.10
2018-12-19T03:50:31.772Z,16.20
2018-12-19T03:52:59.252Z,16.10
2018-12-19T03:55:26.712Z,16.10
2018-12-19T03:57:54.345Z,16.10
2018-12-19T04:00:21.890Z,16.10
2018-12-19T04:02:49.454Z,16.10
2018-12-19T04:05:16.922Z,16.10
2018-12-19T04:07:44.472Z,16.10
2018-12-19T04:10:12.002Z,16.10
2018-12-19T04:12:39.534Z,16.10
2018-12-19T04:15:07.013Z,16.10
2018-12-19T04:17:34.485Z,16.10
2018-12-19T04:20:01.972Z,16.10
2018-12-19T04:22:29.500Z,16.10
2018-12-19T04:24:56.964Z,16.10
2018-12-19T04:27:24.432Z,16.10
2018-12-19T04:29:51.988Z,16.10
2018-12-19T04:32:19.530Z,16.10
2018-12-19T04:34:47.088Z,16.10
2018-12-19T04:37:14.565Z,16.10
2018-12-19T04:39:42.021Z,16.10
2018-12-19T04:42:09.557Z,16.10
2018-12-19T04:44:37.151Z,16.10
2018-12-19T04:47:04.698Z,16.10
2018-12-19T04:49:32.205Z,16.10
2018-12-19T04:51:59.685Z,16.10
2018-12-19T04:54:27.162Z,16.10
2018-12-19T04:56:55.738Z,16.10
2018-12-19T04:59:23.243Z,16.10
2018-12-19T05:01:50.690Z,16.10
2018-12-19T05:04:18.140Z,16.10
2018-12-19T05:06:46.694Z,16.20
2018-12-19T05:09:14.195Z,16.10
2018-12-19T05:11:41.744Z,16.10
2018-12-19T05:14:09.236Z,16.10
2018-12-19T05:16:36.765Z,16.20
2018-12-19T05:19:04.234Z,16.20
2018-12-19T05:21:31.716Z,16.20
2018-12-19T05:23:59.191Z,16.20
2018-12-19T05:26:31.813Z,16.20
2018-12-19T05:28:59.265Z,16.30
2018-12-19T05:31:26.740Z,16.30
2018-12-19T05:33:54.204Z,16.30
2018-12-19T05:36:21.698Z,16.30
2018-12-19T05:38:49.160Z,16.20
2018-12-19T05:41:16.667Z,16.30
2018-12-19T05:43:44.134Z,16.30
2018-12-19T05:46:11.646Z,16.30
2018-12-19T05:48:39.126Z,16.30
2018-12-19T05:51:06.673Z,16.30
2018-12-19T05:53:34.211Z,16.30
2018-12-19T05:56:01.742Z,16.30
2018-12-19T05:58:29.224Z,16.40
2018-12-19T06:00:56.679Z,16.40
2018-12-19T06:03:24.140Z,16.40
2018-12-19T06:05:51.600Z,16.40
2018-12-19T06:08:19.153Z,16.40
2018-12-19T06:10:46.622Z,16.40
2018-12-19T06:13:14.106Z,16.40
2018-12-19T06:15:41.561Z,16.40
2018-12-19T06:18:09.016Z,16.40
2018-12-19T06:20:36.535Z,16.50
2018-12-19T06:23:04.056Z,16.50
2018-12-19T06:25:31.514Z,16.40
2018-12-19T06:27:59.054Z,16.40
2018-12-19T06:30:26.988Z,16.50
2018-12-19T06:32:54.490Z,16.50
2018-12-19T06:35:21.950Z,16.50
2018-12-19T06:37:49.440Z,16.50
2018-12-19T06:40:16.922Z,16.50
2018-12-19T06:42:44.497Z,16.50
2018-12-19T06:45:12.049Z,16.50
2018-12-19T06:47:39.498Z,16.50
2018-12-19T06:50:07.930Z,16.50
2018-12-19T06:52:35.447Z,16.50
2018-12-19T06:55:02.915Z,16.50
2018-12-19T06:57:30.383Z,16.60
2018-12-19T06:59:59.880Z,16.60
2018-12-19T07:02:27.363Z,16.60
2018-12-19T07:04:54.827Z,16.60
2018-12-19T07:07:22.503Z,16.60
2018-12-19T07:09:49.977Z,16.60
2018-12-19T07:12:17.498Z,16.60
2018-12-19T07:14:46.321Z,16.60
2018-12-19T07:17:13.959Z,16.60
2018-12-19T07:19:41.431Z,16.60
2018-12-19T07:22:08.917Z,16.60
2018-12-19T07:24:36.388Z,16.60
2018-12-19T07:27:03.850Z,16.70
2018-12-19T07:29:31.327Z,16.70
2018-12-19T07:31:58.792Z,16.60
2018-12-19T07:34:26.410Z,16.60
2018-12-19T07:36:54.150Z,16.60
2018-12-19T07:39:21.672Z,16.60
2018-12-19T07:41:49.235Z,16.60
2018-12-19T07:44:16.767Z,16.60
2018-12-19T07:46:44.414Z,16.60
2018-12-19T07:49:11.870Z,16.60
2018-12-19T07:51:39.461Z,16.60
2018-12-19T07:54:07.090Z,16.60
2018-12-19T07:56:34.543Z,16.60
2018-12-19T07:59:02.313Z,16.60
2018-12-19T08:01:29.807Z,16.60
2018-12-19T08:03:57.309Z,16.60
2018-12-19T08:06:24.761Z,16.60
2018-12-19T08:08:52.236Z,16.60
2018-12-19T08:11:19.694Z,16.60
2018-12-19T08:13:47.167Z,16.70
2018-12-19T08:16:14.648Z,16.70
2018-12-19T08:18:42.221Z,16.60
2018-12-19T08:21:09.682Z,16.70
2018-12-19T08:23:37.269Z,16.70
2018-12-19T08:26:04.890Z,16.70
2018-12-19T08:28:32.385Z,16.70
2018-12-19T08:30:59.849Z,16.70
2018-12-19T08:33:27.330Z,16.70
2018-12-19T08:35:54.784Z,16.60
2018-12-19T08:38:22.266Z,16.70
2018-12-19T08:40:49.761Z,16.70
2018-12-19T08:43:17.287Z,16.60
2018-12-19T08:45:45.051Z,16.60
2018-12-19T08:48:12.536Z,16.70
2018-12-19T08:50:39.990Z,16.70
2018-12-19T08:53:07.449Z,16.70
2018-12-19T08:55:34.943Z,16.70
2018-12-19T08:58:02.394Z,16.60
2018-12-19T09:00:29.957Z,16.70
2018-12-19T09:02:57.554Z,16.70
2018-12-19T09:05:25.166Z,16.60
2018-12-19T09:07:52.635Z,16.70
2018-12-19T09:10:20.104Z,16.70
2018-12-19T09:12:47.633Z,16.70
2018-12-19T09:15:19.444Z,16.60
2018-12-19T09:17:47.061Z,16.60
2018-12-19T09:20:14.913Z,16.70
2018-12-19T09:22:42.390Z,16.60
2018-12-19T09:25:09.867Z,16.70
2018-12-19T09:27:37.343Z,16.70
2018-12-19T09:30:04.944Z,16.70
2018-12-19T09:32:32.401Z,16.60
2018-12-19T09:34:59.861Z,16.70
2018-12-19T09:37:27.338Z,16.70
2018-12-19T09:39:54.807Z,16.70
2018-12-19T09:42:22.287Z,16.70
2018-12-19T09:44:49.786Z,16.70
2018-12-19T09:47:17.276Z,16.70
2018-12-19T09:49:44.742Z,16.70
2018-12-19T09:52:12.224Z,16.70
2018-12-19T09:54:39.695Z,16.60
2018-12-19T09:57:07.185Z,16.60
2018-12-19T09:59:34.649Z,16.60
2018-12-19T10:02:02.301Z,16.70
2018-12-19T10:04:29.851Z,16.70
2018-12-19T10:06:57.345Z,16.70
2018-12-19T10:09:24.805Z,16.70
2018-12-19T10:11:52.262Z,16.60
2018-12-19T10:14:19.745Z,16.60
2018-12-19T10:16:47.212Z,16.70
2018-12-19T10:19:14.698Z,16.60
2018-12-19T10:21:42.166Z,16.60
2018-12-19T10:24:09.632Z,16.70
2018-12-19T10:26:37.103Z,16.70
2018-12-19T10:29:04.566Z,16.60
2018-12-19T10:31:32.049Z,16.70
2018-12-19T10:34:01.575Z,16.70
2018-12-19T10:36:34.459Z,16.70
2018-12-19T10:39:01.933Z,16.70
2018-12-19T10:41:29.486Z,16.70
2018-12-19T10:43:57.529Z,16.70
2018-12-19T10:46:25.017Z,16.70
2018-12-19T10:48:52.473Z,16.70
2018-12-19T10:51:19.938Z,16.70
2018-12-19T10:53:47.414Z,16.60
2018-12-19T10:56:14.913Z,16.60
2018-12-19T10:58:42.373Z,16.60
2018-12-19T11:01:09.860Z,16.60
2018-12-19T11:03:37.393Z,16.60
2018-12-19T11:06:04.873Z,16.60
2018-12-19T11:08:32.337Z,16.60
2018-12-19T11:10:59.798Z,16.60
2018-12-19T11:13:27.280Z,16.60
2018-12-19T11:15:54.732Z,16.60
2018-12-19T11:18:22.197Z,16.60
2018-12-19T11:20:49.751Z,16.50
2018-12-19T11:23:17.232Z,16.60
2018-12-19T11:25:44.769Z,16.60
2018-12-19T11:28:12.214Z,16.60
2018-12-19T11:30:39.690Z,16.60
2018-12-19T11:33:07.162Z,16.60
2018-12-19T11:35:34.637Z,16.60
2018-12-19T11:38:02.117Z,16.60
2018-12-19T11:40:29.610Z,16.60
2018-12-19T11:42:57.072Z,16.60
2018-12-19T11:45:24.540Z,16.60
2018-12-19T11:47:52.146Z,16.60
2018-12-19T11:50:19.618Z,16.60
2018-12-19T11:52:47.094Z,16.60
2018-12-19T11:55:14.588Z,16.60
2018-12-19T11:57:42.083Z,16.60
2018-12-19T12:00:09.611Z,16.60
2018-12-19T12:02:37.121Z,16.60
2018-12-19T12:05:04.967Z,16.70
2018-12-19T12:07:32.549Z,16.60
2018-12-19T12:10:00.005Z,16.60
2018-12-19T12:12:27.477Z,16.70
2018-12-19T12:14:54.937Z,16.60
2018-12-19T12:17:22.421Z,16.70
2018-12-19T12:19:49.941Z,16.60
2018-12-19T12:22:17.393Z,16.60
2018-12-19T12:24:44.871Z,16.60
2018-12-19T12:27:13.070Z,16.60
2018-12-19T12:29:40.594Z,16.60
2018-12-19T12:32:08.093Z,16.50
2018-12-19T12:34:35.659Z,16.50
2018-12-19T12:37:03.304Z,16.50
2018-12-19T12:39:30.854Z,16.50
2018-12-19T12:41:58.409Z,16.50
2018-12-19T12:44:25.955Z,16.50
2018-12-19T12:46:53.534Z,16.50
2018-12-19T12:49:21.081Z,16.50
2018-12-19T12:51:48.537Z,16.50
2018-12-19T12:54:16.065Z,16.50
2018-12-19T12:56:43.529Z,16.40
2018-12-19T12:59:11.040Z,16.40
2018-12-19T13:01:38.577Z,16.40
2018-12-19T13:04:06.057Z,16.40
2018-12-19T13:06:33.523Z,16.40
2018-12-19T13:09:01.041Z,16.40
2018-12-19T13:11:28.523Z,16.40
2018-12-19T13:13:56.000Z,16.40
2018-12-19T13:16:23.482Z,16.40
2018-12-19T13:18:50.997Z,16.40
2018-12-19T13:21:18.473Z,16.40
2018-12-19T13:23:57.941Z,16.40
2018-12-19T13:26:25.383Z,16.30
2018-12-19T13:28:52.930Z,16.30
2018-12-19T13:31:20.407Z,16.40
2018-12-19T13:33:47.918Z,16.30
2018-12-19T13:36:15.774Z,16.30
2018-12-19T13:38:43.291Z,16.30
2018-12-19T13:41:10.813Z,16.30
2018-12-19T13:43:38.296Z,16.30
2018-12-19T13:46:05.753Z,16.30
2018-12-19T13:48:33.244Z,16.30
2018-12-19T13:51:00.700Z,16.30
2018-12-19T13:53:28.198Z,16.30
2018-12-19T13:55:55.665Z,16.30
2018-12-19T13:58:23.305Z,16.30
2018-12-19T14:00:50.802Z,16.30
2018-12-19T14:03:18.287Z,16.30
2018-12-19T14:05:45.779Z,16.30
2018-12-19T14:08:13.288Z,16.30
2018-12-19T14:10:40.732Z,16.20
2018-12-19T14:13:08.318Z,16.30
2018-12-19T14:15:35.753Z,16.20
2018-12-19T14:18:03.228Z,16.20
2018-12-19T14:20:30.707Z,16.30
2018-12-19T14:22:58.151Z,16.20
2018-12-19T14:25:25.607Z,16.20
2018-12-19T14:27:53.074Z,16.20
2018-12-19T14:30:20.610Z,16.20
2018-12-19T14:32:48.046Z,16.20
2018-12-19T14:35:15.602Z,16.20
2018-12-19T14:37:43.070Z,16.20
2018-12-19T14:40:10.564Z,16.20
2018-12-19T14:42:38.023Z,16.20
2018-12-19T14:45:06.122Z,16.20
2018-12-19T14:47:33.601Z,16.20
2018-12-19T14:50:01.107Z,16.20
2018-12-19T14:52:28.569Z,16.20
2018-12-19T14:54:56.028Z,16.20
2018-12-19T14:57:23.493Z,16.20
2018-12-19T14:59:50.987Z,16.20
2018-12-19T15:02:18.436Z,16.20
2018-12-19T15:04:45.921Z,16.20
2018-12-19T15:07:13.373Z,16.20
2018-12-19T15:09:40.868Z,16.20
2018-12-19T15:12:08.336Z,16.20
2018-12-19T15:14:35.989Z,16.20
2018-12-19T15:17:03.465Z,16.20
2018-12-19T15:19:31.126Z,16.20
2018-12-19T15:21:59.720Z,16.20
2018-12-19T15:24:27.362Z,16.20
2018-12-19T15:26:54.894Z,16.20
2018-12-19T15:29:23.279Z,16.20
2018-12-19T15:31:51.907Z,16.10
2018-12-19T15:34:19.534Z,16.10
2018-12-19T15:36:47.046Z,16.20
2018-12-19T15:39:14.577Z,16.20
2018-12-19T15:41:42.034Z,16.20
2018-12-19T15:44:09.569Z,16.20
2018-12-19T15:46:37.036Z,16.20
2018-12-19T15:49:04.558Z,16.20
2018-12-19T15:51:32.035Z,16.10
2018-12-19T15:53:59.538Z,16.20
2018-12-19T15:56:27.554Z,16.10
2018-12-19T15:58:55.375Z,16.10
2018-12-19T16:01:23.017Z,16.10
2018-12-19T16:03:51.271Z,16.10
2018-12-19T16:06:18.861Z,16.10
2018-12-19T16:08:46.645Z,16.10
2018-12-19T16:11:14.658Z,16.10
2018-12-19T16:13:42.289Z,16.10
2018-12-19T16:16:09.746Z,16.10
2018-12-19T16:18:37.211Z,16.10
2018-12-19T16:21:04.691Z,16.10
2018-12-19T16:23:32.150Z,16.10
2018-12-19T16:25:59.727Z,16.10
2018-12-19T16:28:27.202Z,16.10
2018-12-19T16:30:54.680Z,16.10
2018-12-19T16:33:22.247Z,16.10
2018-12-19T16:35:49.714Z,16.10
2018-12-19T16:38:18.369Z,16.10
2018-12-19T16:40:45.956Z,16.20
2018-12-19T16:43:13.397Z,16.20
2018-12-19T16:45:40.870Z,16.20
2018-12-19T16:48:08.343Z,16.20
2018-12-19T16:50:35.805Z,16.20
2018-12-19T16:53:03.251Z,16.20
2018-12-19T16:55:30.711Z,16.20
2018-12-19T16:57:58.161Z,16.20
2018-12-19T17:00:26.527Z,16.20
2018-12-19T17:02:53.991Z,16.20
2018-12-19T17:05:21.461Z,16.20
2018-12-19T17:07:50.166Z,16.20
2018-12-19T17:10:17.660Z,16.20
2018-12-19T17:12:45.241Z,16.30
2018-12-19T17:15:12.801Z,16.30
2018-12-19T17:17:40.281Z,16.30
2018-12-19T17:20:07.740Z,16.30
2018-12-19T17:22:35.213Z,16.40
2018-12-19T17:25:02.661Z,16.40
2018-12-19T17:27:30.118Z,16.40
2018-12-19T17:29:57.658Z,16.40
2018-12-19T17:32:25.594Z,16.40
2018-12-19T17:34:53.091Z,16.40
2018-12-19T17:37:20.561Z,16.40
2018-12-19T17:39:48.055Z,16.40
2018-12-19T17:42:15.528Z,16.50
2018-12-19T17:44:43.027Z,16.50
2018-12-19T17:47:10.480Z,16.50
2018-12-19T17:49:37.940Z,16.50
2018-12-19T17:52:05.458Z,16.50
2018-12-19T17:54:32.951Z,16.50
2018-12-19T17:57:00.492Z,16.50
2018-12-19T17:59:27.940Z,16.50
2018-12-19T18:01:58.624Z,16.50
2018-12-19T18:04:26.147Z,16.50
2018-12-19T18:06:53.605Z,16.50
2018-12-19T18:09:21.067Z,16.50
2018-12-19T18:11:48.524Z,16.50
2018-12-19T18:14:16.040Z,16.50
2018-12-19T18:16:44.633Z,16.50
2018-12-19T18:19:13.183Z,16.50
2018-12-19T18:21:40.718Z,16.60
2018-12-19T18:24:08.245Z,16.60
2018-12-19T18:26:37.752Z,16.50
2018-12-19T18:29:05.274Z,16.50
2018-12-19T18:31:32.800Z,16.50
2018-12-19T18:34:00.370Z,16.50
2018-12-19T18:36:29.004Z,16.40
2018-12-19T18:39:00.505Z,16.30
2018-12-19T18:41:29.157Z,16.10
2018-12-19T18:43:57.149Z,16.00
2018-12-19T18:46:24.908Z,16.00
2018-12-19T18:48:52.849Z,15.90
2018-12-19T18:51:20.355Z,15.80
2018-12-19T18:53:53.650Z,15.70
2018-12-19T18:56:21.406Z,15.60
2018-12-19T18:58:49.438Z,15.60
2018-12-19T19:01:18.651Z,15.60
2018-12-19T19:03:47.448Z,15.60
2018-12-19T19:06:16.090Z,15.50
2018-12-19T19:08:46.773Z,15.40
2018-12-19T19:11:16.105Z,15.50
2018-12-19T19:13:44.297Z,15.40
2018-12-19T19:16:12.346Z,15.40
2018-12-19T19:18:40.940Z,15.30
2018-12-19T19:21:08.970Z,15.20
2018-12-19T19:23:38.280Z,15.20
2018-12-19T19:26:06.087Z,15.20
2018-12-19T19:28:34.470Z,15.20
2018-12-19T19:31:03.006Z,15.10
2018-12-19T19:33:36.468Z,15.10
2018-12-19T19:36:04.142Z,15.10
2018-12-19T19:38:32.322Z,15.00
2018-12-19T19:41:00.089Z,14.90
2018-12-19T19:43:27.950Z,14.90
2018-12-19T19:45:55.632Z,14.90
2018-12-19T19:48:24.180Z,14.90
2018-12-19T19:50:52.122Z,14.90
2018-12-19T19:53:20.170Z,14.90
2018-12-19T19:55:48.781Z,14.90
2018-12-19T19:58:17.350Z,14.90
2018-12-19T20:00:44.865Z,14.90
2018-12-19T20:03:12.363Z,14.80
2018-12-19T20:05:39.870Z,14.80
2018-12-19T20:08:07.533Z,14.90
2018-12-19T20:10:35.060Z,15.00
2018-12-19T20:13:03.659Z,15.10
2018-12-19T20:15:31.254Z,15.20
2018-12-19T20:17:58.697Z,15.30
2018-12-19T20:20:26.238Z,15.30
2018-12-19T20:22:53.694Z,15.40
2018-12-19T20:25:21.209Z,15.50
2018-12-19T20:27:48.729Z,15.50
2018-12-19T20:30:16.309Z,15.50
2018-12-19T20:32:43.784Z,15.40
2018-12-19T20:35:11.287Z,15.50
2018-12-19T20:37:38.825Z,15.40
2018-12-19T20:40:06.437Z,15.50
2018-12-19T20:42:33.959Z,15.50
2018-12-19T20:45:01.555Z,15.50
2018-12-19T20:47:31.095Z,15.50
2018-12-19T20:49:58.583Z,15.50
2018-12-19T20:52:26.061Z,15.50
2018-12-19T20:54:53.516Z,15.50
2018-12-19T20:57:21.002Z,15.50
2018-12-19T20:59:48.521Z,15.50
2018-12-19T21:02:19.653Z,15.50
2018-12-19T21:04:47.134Z,15.50
2018-12-19T21:07:17.641Z,15.50
2018-12-19T21:09:45.242Z,15.50
2018-12-19T21:12:12.703Z,15.50
2018-12-19T21:14:52.120Z,15.60
2018-12-19T21:17:25.104Z,15.60
2018-12-19T21:19:52.559Z,15.60
2018-12-19T21:22:20.024Z,15.60
2018-12-19T21:24:47.480Z,15.60
2018-12-19T21:27:22.010Z,15.60
2018-12-19T21:29:49.470Z,15.60
2018-12-19T21:32:16.937Z,15.60
2018-12-19T21:34:44.426Z,15.60
2018-12-19T21:37:11.907Z,15.60
2018-12-19T21:39:39.376Z,15.60
2018-12-19T21:42:06.916Z,15.60
2018-12-19T21:44:34.381Z,15.60
2018-12-19T21:47:01.966Z,15.60
2018-12-19T21:49:29.470Z,15.60
2018-12-19T21:51:57.089Z,15.60
2018-12-19T21:54:24.557Z,15.60
2018-12-19T21:56:52.065Z,15.60
2018-12-19T21:59:19.666Z,15.60
2018-12-19T22:01:47.269Z,15.60
2018-12-19T22:04:14.765Z,15.70
2018-12-19T22:06:42.291Z,15.60
2018-12-19T22:09:09.748Z,15.70
2018-12-19T22:11:37.299Z,15.70
2018-12-19T22:14:04.889Z,15.70
2018-12-19T22:16:37.973Z,15.70
2018-12-19T22:19:05.469Z,15.60
2018-12-19T22:21:32.935Z,15.70
2018-12-19T22:24:00.522Z,15.70
2018-12-19T22:26:31.052Z,15.70
2018-12-19T22:28:58.751Z,15.70
2018-12-19T22:31:26.301Z,15.70
2018-12-19T22:33:53.814Z,15.80
2018-12-19T22:36:21.363Z,15.70
2018-12-19T22:38:48.825Z,15.70
2018-12-19T22:41:16.300Z,15.80
2018-12-19T22:43:43.807Z,15.80
2018-12-19T22:46:11.335Z,15.80
2018-12-19T22:48:38.795Z,15.80
2018-12-19T22:51:06.283Z,15.80
2018-12-19T22:53:33.743Z,15.80
2018-12-19T22:56:01.356Z,15.80
2018-12-19T22:58:28.856Z,15.80
2018-12-19T23:01:01.814Z,15.80
2018-12-19T23:03:34.792Z,15.80
2018-12-19T23:06:02.350Z,15.80
2018-12-19T23:08:29.952Z,15.80
2018-12-19T23:10:57.486Z,15.80
2018-12-19T23:13:25.134Z,15.80
2018-12-19T23:15:52.593Z,15.80
2018-12-19T23:18:25.796Z,15.80
2018-12-19T23:20:53.290Z,15.80
2018-12-19T23:23:20.747Z,15.80
2018-12-19T23:25:48.541Z,15.90
2018-12-19T23:28:16.149Z,15.80
2018-12-19T23:30:43.636Z,15.90
2018-12-19T23:33:11.098Z,15.90
2018-12-19T23:35:38.619Z,15.90
2018-12-19T23:38:06.127Z,15.90
2018-12-19T23:40:33.597Z,15.90
2018-12-19T23:43:01.085Z,15.90
2018-12-19T23:45:28.641Z,15.90
2018-12-19T23:47:56.227Z,15.90
2018-12-19T23:50:23.786Z,15.90
2018-12-19T23:52:51.345Z,15.90
2018-12-19T23:55:19.041Z,15.90
2018-12-19T23:57:46.485Z,15.90
